Selby, United Kingdom
Current Conditions -  °F | °C
As of 1:50 AM on Tuesday 25 Nov 2014 (Local Time) from EGXU Reporting Station
Overcast Overcast  
Wind Chill: 36°   Ceiling: 18000
Heat Index: 36°   Visibility: 2.4mi
Dew Point: 36°   Wind: 3mph
Humidity: 100%   Direction: 110°ESE
Pressure: 30.3"   Gusts: NA
Location:  53.78°N, 1.07°W
Report Text: EGXU 250150Z AUTO 11003KT 3900 // OVC180/// 02/02 Q1026
Loading
Personal Weather Stations






























Interactive Weather Map New forecast layout! Learn more

10-Day Weather Forecast

Advertisements
Track Severe Weather on mobile